Weather observations for the past three days for
Wisconsin Rapids, Alexander Field South Wood County Airport
Imperial (Metric)
Date Time (cdt) Wind (mph) Vis. (mi.) Weather Sky Cond. Temperature (ºF) Relative Humidity Wind Chill (°F) Heat Index (°F) Pressure Precipitation (in)
Air Dwpt 6 hour altimeter (in) sea level (mb) 1 hr 3 hr 6 hr
Max. Min.
05 22:54 SW 3 10.00 Overcast OVC080 37 28 70% 29.85 1011.4
05 21:54 Calm 10.00 Overcast OVC080 37.9 26.1 62% 29.84 1011.3
05 20:54 Calm 10.00 Overcast OVC080 44.1 23 43% 29.83 1010.9
05 19:54 N 7 10.00 Overcast OVC080 46 21.9 38% 43 29.82 1010.4
05 18:54 NW 7 10.00 Overcast OVC080 46.9 19.9 53.1 46.9 34% 44 29.81 1010.2
05 17:54 NW 14 G 24 10.00 Overcast OVC080 48 19 32% 43 29.82 1010.4
05 16:54 NW 15 G 25 10.00 Overcast OVC075 50 19 29% 45 29.81 1010.1
05 15:54 NW 17 G 25 10.00 Overcast OVC075 51.1 18 27% 29.8 1009.8
05 14:54 NW 13 G 30 10.00 Overcast OVC070 53.1 19.9 27% 29.8 1009.7
05 13:54 W 17 G 31 10.00 Mostly Cloudy BKN070 51.1 17.1 26% 29.79 1009.5
05 12:54 NW 17 G 24 10.00 Mostly Cloudy BKN070 51.1 18 51.1 39 27% 29.78 1009.0
05 11:54 NW 18 G 30 10.00 A Few Clouds FEW060 48 18 30% 42 29.78 1008.9
05 10:54 NW 14 G 26 10.00 Partly Cloudy SCT060 48 19 32% 43 29.77 1008.5
05 09:54 NW 15 G 25 10.00 Fair CLR 48 17.1 29% 43 29.77 1008.4
05 08:54 NW 15 G 23 10.00 Fair CLR 44.1 23 43% 38 29.78 1008.7
05 07:54 NW 13 10.00 Fair CLR 43 26.1 51% 37 29.76 1008.2
05 06:54 W 8 10.00 Fair CLR 39 26.1 43 36 60% 34 29.73 1007.0
05 05:54 W 6 10.00 Fair CLR 36 26.1 67% 32 29.72 1006.7
05 04:54 W 6 10.00 Fair CLR 37.9 25 60% 34 29.7 1006.1
05 03:54 W 6 10.00 Fair CLR 39.9 25 55% 36 29.68 1005.1
05 02:54 W 5 10.00 Fair CLR 39.9 24.1 53% 37 29.65 1004.3
05 01:54 W 7 10.00 Fair CLR 41 23 49% 37 29.66 1004.6
05 00:54 NW 8 10.00 Fair CLR 42.1 24.1 62.1 42.1 49% 38 29.66 1004.6
04 23:54 NW 12 10.00 Fair CLR 46 24.1 42% 41 29.65 1003.9
04 22:54 NW 16 G 29 10.00 Fair CLR 48 25 41% 42 29.62 1002.8
04 21:54 NW 15 G 25 10.00 Fair CLR 52 27 38% 29.58 1001.5
04 20:54 NW 17 G 31 10.00 Fair CLR 55 28 36% 29.54 1000.3
04 19:54 NW 16 G 26 10.00 Fair CLR 57.9 28.9 33% 29.5 999.0
04 18:54 W 10 G 24 10.00 Fair CLR 62.1 26.1 73 62.1 25% 29.47 997.9
04 17:54 W 10 G 32 10.00 A Few Clouds FEW120 64 28 26% 29.45 997.4
04 16:54 W 14 G 24 10.00 Mostly Cloudy BKN095 BKN110 66.9 28.9 24% 29.43 996.8
04 15:54 NW 17 G 29 10.00 Fair CLR 70 28 21% 29.43 996.6
04 14:54 W 21 G 37 10.00 Fair and Breezy CLR 72 35.1 26% 29.4 995.6
04 13:54 W 20 G 37 10.00 Fair CLR 72 37 28% 29.4 995.6
04 12:54 W 21 G 32 10.00 A Few Clouds and Breezy FEW110 73 39.9 73 54 30% 29.4 995.6
04 11:54 W 15 G 33 10.00 Fair CLR 72 37.9 29% 29.4 995.7
04 10:54 W 23 G 37 10.00 Mostly Cloudy and Breezy BKN100 69.1 37 31% 29.41 995.8
04 09:54 W 17 G 31 10.00 Fair CLR 69.1 35.1 29% 29.41 995.6
04 08:54 SW 16 G 23 10.00 Fair CLR 64 36 35% 29.43 996.4
04 07:54 SW 13 10.00 Fair CLR 59 33.1 38% 29.46 997.3
04 06:54 SW 9 10.00 Fair CLR 54 34 54 37.9 47% 29.47 997.7
04 05:54 SW 9 10.00 Fair CLR 50 34 54% 47 29.48 998.3
04 04:54 S 6 10.00 Fair CLR 45 35.1 68% 42 29.51 999.4
04 03:54 S 3 10.00 Fair CLR 42.1 34 73% 29.54 1000.2
04 02:54 SW 6 10.00 Fair CLR 45 33.1 63% 42 29.56 1001.0
04 01:54 SW 5 10.00 Fair CLR 42.1 33.1 71% 40 29.59 1002.1
04 00:54 Calm 10.00 Fair CLR 42.1 32 69.1 42.1 68% 29.61 1003.0
03 23:54 S 3 10.00 Fair CLR 43 32 65% 29.63 1003.5
03 22:54 W 5 10.00 Fair CLR 50 28.9 44% 49 29.64 1003.7
03 21:54 W 5 10.00 Fair CLR 60.1 28 30% 29.65 1003.8
03 20:54 W 6 10.00 Fair CLR 61 32 34% 29.64 1003.7
03 19:54 W 8 10.00 Fair CLR 64.9 33.1 31% 29.62 1002.9
03 18:54 NW 8 10.00 A Few Clouds FEW085 69.1 34 72 66 27% 29.61 1002.6
03 17:54 NW 12 10.00 Fair CLR 69.1 34 27% 29.61 1002.7
03 16:54 NW 15 G 28 10.00 Fair CLR 71.1 33.1 25% 29.61 1002.5
03 15:54 W 14 G 21 10.00 Partly Cloudy SCT080 71.1 34 26% 29.62 1002.7
03 14:54 W 16 G 24 10.00 A Few Clouds FEW070 71.1 36 28% 29.63 1003.3
03 13:54 W 9 G 23 10.00 Fair CLR 69.1 36 30% 29.65 1004.0
03 12:54 SW 14 G 20 10.00 Fair CLR 66 35.1 66.9 51.1 32% 29.67 1004.5
03 11:54 W 13 G 22 10.00 Fair CLR 64.9 35.1 33% 29.69 1005.5
03 10:54 SW 17 G 26 10.00 Fair CLR 64.9 35.1 33% 29.7 1005.9
03 09:54 SW 10 G 24 10.00 Partly Cloudy SCT120 62.1 36 38% 29.72 1006.5
03 08:54 SW 13 G 18 10.00 Overcast FEW075 BKN100 OVC110 57 36 45% 29.74 1007.5
03 07:54 SW 9 10.00 A Few Clouds FEW080 55 34 45% 29.76 1008.0
03 06:54 SW 6 10.00 Mostly Cloudy BKN080 51.1 34 51.1 48.9 52% 29.75 1007.7
03 05:54 SW 10 10.00 Overcast OVC100 51.1 30 45% 29.75 1007.6
03 04:54 S 7 10.00 Overcast BKN090 OVC110 50 30 46% 48 29.77 1008.2
03 03:54 S 8 10.00 Overcast FEW055 OVC095 50 30 46% 47 29.79 1008.9
03 02:54 SW 10 10.00 Overcast OVC080 50 30 46% 46 29.82 1009.8
03 01:54 SW 8 10.00 Mostly Cloudy BKN095 50 28.9 44% 47 29.82 1010.1
03 00:54 SW 9 10.00 Partly Cloudy FEW090 SCT120 51.1 28.9 57.9 45 43% 29.83 1010.4
02 23:54 SW 7 10.00 Overcast OVC090 50 33.1 52% 48 29.84 1010.9
Date Time (cdt) Wind (mph) Vis. (mi.) Weather Sky Cond. Air Dwpt Max. Min. Relative Humidity Wind Chill (°F) Heat Index (°F) altimeter (in) sea level (mb) 1 hr 3 hr 6 hr
6 hour
Temperature (ºF) Pressure Precipitation (in)